sensor_id;sensor_type;location;lat;lon;timestamp;pressure;altitude;pressure_sealevel;temperature;humidity
31162;BME280;17796;49.296;-117.656;2023-02-28T00:04:05;95000;;;-0.47656;55.89372
31162;BME280;17796;49.296;-117.656;2023-02-28T00:19:09;95000;;;-1.28951;59.52114
31162;BME280;17796;49.296;-117.656;2023-02-28T00:34:13;95000;;;-1.66518;62.35999
31162;BME280;17796;49.296;-117.656;2023-02-28T00:49:16;94900;;;-1.42384;61.53249
31162;BME280;17796;49.296;-117.656;2023-02-28T01:04:20;94900;;;-1.48322;61.25562
31162;BME280;17796;49.296;-117.656;2023-02-28T01:19:24;94900;;;-1.99925;67.16293
31162;BME280;17796;49.296;-117.656;2023-02-28T01:34:29;94900;;;-2.22852;66.83582
31162;BME280;17796;49.296;-117.656;2023-02-28T01:49:32;94900;;;-1.97384;65.845
31162;BME280;17796;49.296;-117.656;2023-02-28T02:04:37;94900;;;-1.63946;66.15183
31162;BME280;17796;49.296;-117.656;2023-02-28T02:19:57;94900;;;-2.0345;67.25308
31162;BME280;17796;49.296;-117.656;2023-02-28T02:35:54;94800;;;-1.37684;66.82537
31162;BME280;17796;49.296;-117.656;2023-02-28T02:51:03;94800;;;-1.65343;69.17882
31162;BME280;17796;49.296;-117.656;2023-02-28T03:06:10;94800;;;-2.14215;71.00927
31162;BME280;17796;49.296;-117.656;2023-02-28T03:21:14;94800;;;-1.45623;67.20737
31162;BME280;17796;49.296;-117.656;2023-02-28T03:36:25;94800;;;-1.59563;67.56299
31162;BME280;17796;49.296;-117.656;2023-02-28T03:51:32;94700;;;-2.41842;70.98689
31162;BME280;17796;49.296;-117.656;2023-02-28T04:06:38;94700;;;-2.72676;72.70114
31162;BME280;17796;49.296;-117.656;2023-02-28T04:21:43;94700;;;-2.58005;72.89846
31162;BME280;17796;49.296;-117.656;2023-02-28T04:36:48;94700;;;-1.99925;69.93149
31162;BME280;17796;49.296;-117.656;2023-02-28T04:51:52;94700;;;-2.54354;73.82555
31162;BME280;17796;49.296;-117.656;2023-02-28T05:06:56;94700;;;-1.6728;70.27869
31162;BME280;17796;49.296;-117.656;2023-02-28T05:21:59;94600;;;-2.655;74.68492
31162;BME280;17796;49.296;-117.656;2023-02-28T05:37:03;94600;;;-1.98496;72.98201
31162;BME280;17796;49.296;-117.656;2023-02-28T05:52:07;94600;;;-1.68709;70.72444
31162;BME280;17796;49.296;-117.656;2023-02-28T06:07:11;94600;;;-1.52863;70.0992
31162;BME280;17796;49.296;-117.656;2023-02-28T06:22:15;94600;;;-1.63819;71.46424
31162;BME280;17796;49.296;-117.656;2023-02-28T06:37:18;94600;;;-1.70741;71.08258
31162;BME280;17796;49.296;-117.656;2023-02-28T06:52:22;94600;;;-1.55499;70.11349
31162;BME280;17796;49.296;-117.656;2023-02-28T07:07:26;94600;;;-1.66708;71.75068
31162;BME280;17796;49.296;-117.656;2023-02-28T07:22:29;94600;;;-1.40955;69.99944
31162;BME280;17796;49.296;-117.656;2023-02-28T07:37:33;94600;;;-1.31555;68.32036
31162;BME280;17796;49.296;-117.656;2023-02-28T07:52:37;94600;;;-1.34857;69.7314
31162;BME280;17796;49.296;-117.656;2023-02-28T08:07:41;94600;;;-1.56261;69.58937
31162;BME280;17796;49.296;-117.656;2023-02-28T08:22:44;94600;;;-1.73155;71.11877
31162;BME280;17796;49.296;-117.656;2023-02-28T08:37:48;94600;;;-2.23773;72.35653
31162;BME280;17796;49.296;-117.656;2023-02-28T08:52:53;94600;;;-2.70009;74.13229
31162;BME280;17796;49.296;-117.656;2023-02-28T09:07:57;94600;;;-1.72774;69.71289
31162;BME280;17796;49.296;-117.656;2023-02-28T09:23:00;94600;;;-2.21391;72.08648
31162;BME280;17796;49.296;-117.656;2023-02-28T09:38:04;94600;;;-1.89954;71.88945
31162;BME280;17796;49.296;-117.656;2023-02-28T09:53:14;94600;;;-2.16247;71.54652
31162;BME280;17796;49.296;-117.656;2023-02-28T10:08:25;94600;;;-2.00211;71.07507
31162;BME280;17796;49.296;-117.656;2023-02-28T10:23:34;94600;;;-2.00084;71.50536
31162;BME280;17796;49.296;-117.656;2023-02-28T10:38:40;94600;;;-2.4778;73.53781
31162;BME280;17796;49.296;-117.656;2023-02-28T10:53:47;94600;;;-2.06689;71.17327
31162;BME280;17796;49.296;-117.656;2023-02-28T11:08:52;94600;;;-2.7817;74.54321
31162;BME280;17796;49.296;-117.656;2023-02-28T11:23:59;94500;;;-2.11643;72.52456
31162;BME280;17796;49.296;-117.656;2023-02-28T11:39:10;94600;;;-1.82872;71.13269
31162;BME280;17796;49.296;-117.656;2023-02-28T11:54:23;94600;;;-2.02878;71.92228
31162;BME280;17796;49.296;-117.656;2023-02-28T12:09:42;94600;;;-1.93224;71.56544
31162;BME280;17796;49.296;-117.656;2023-02-28T12:25:38;94600;;;-1.79284;70.2474
31162;BME280;17796;49.296;-117.656;2023-02-28T12:40:53;94600;;;-2.15263;71.27517
31162;BME280;17796;49.296;-117.656;2023-02-28T12:56:02;94600;;;-2.01449;70.21899
31162;BME280;17796;49.296;-117.656;2023-02-28T13:11:26;94600;;;-2.31807;71.56093
31162;BME280;17796;49.296;-117.656;2023-02-28T13:43:02;94600;;;-2.20121;70.54178
31162;BME280;17796;49.296;-117.656;2023-02-28T13:58:12;94600;;;-2.30473;71.46953
31162;BME280;17796;49.296;-117.656;2023-02-28T14:13:40;94600;;;-2.30124;71.64937
31162;BME280;17796;49.296;-117.656;2023-02-28T14:28:49;94600;;;-1.97829;70.74477
31162;BME280;17796;49.296;-117.656;2023-02-28T14:44:12;94600;;;-2.06371;71.39676
31162;BME280;17796;49.296;-117.656;2023-02-28T14:59:23;94600;;;-2.48733;74.17831
31162;BME280;17796;49.296;-117.656;2023-02-28T15:14:29;94600;;;-1.97956;71.32196
31162;BME280;17796;49.296;-117.656;2023-02-28T15:29:36;94600;;;-1.4305;69.5723
31162;BME280;17796;49.296;-117.656;2023-02-28T15:44:48;94600;;;-1.31618;69.27005
31162;BME280;17796;49.296;-117.656;2023-02-28T15:59:52;94700;;;-1.12724;68.10493
31162;BME280;17796;49.296;-117.656;2023-02-28T16:14:59;94700;;;-0.89542;68.03454
31162;BME280;17796;49.296;-117.656;2023-02-28T16:30:13;94700;;;-0.37303;66.60606
31162;BME280;17796;49.296;-117.656;2023-02-28T16:45:23;94700;;;-0.4664;67.13037
31162;BME280;17796;49.296;-117.656;2023-02-28T17:00:29;94700;;;-0.38605;67.56841
31162;BME280;17796;49.296;-117.656;2023-02-28T17:15:34;94700;;;-0.28666;66.09737
31162;BME280;17796;49.296;-117.656;2023-02-28T17:30:39;94700;;;0.23986;64.09866
31162;BME280;17796;49.296;-117.656;2023-02-28T17:45:42;94700;;;-0.34286;66.55889
31162;BME280;17796;49.296;-117.656;2023-02-28T18:00:46;94700;;;0.48248;64.8056
31162;BME280;17796;49.296;-117.656;2023-02-28T18:15:50;94700;;;0.11252;65.17082
31162;BME280;17796;49.296;-117.656;2023-02-28T18:30:54;94800;;;0.76892;63.36311
31162;BME280;17796;49.296;-117.656;2023-02-28T18:45:57;94800;;;0.03948;65.63738
31162;BME280;17796;49.296;-117.656;2023-02-28T19:01:11;94800;;;-0.01832;66.92657
31162;BME280;17796;49.296;-117.656;2023-02-28T19:16:17;94800;;;1.37547;62.78406
31162;BME280;17796;49.296;-117.656;2023-02-28T19:31:22;94800;;;0.95502;64.86922
31162;BME280;17796;49.296;-117.656;2023-02-28T19:46:27;94800;;;1.3977;64.4469
31162;BME280;17796;49.296;-117.656;2023-02-28T20:01:31;94800;;;2.46378;60.39306
31162;BME280;17796;49.296;-117.656;2023-02-28T20:16:34;94800;;;2.18115;61.41494
31162;BME280;17796;49.296;-117.656;2023-02-28T20:31:38;94800;;;0.33227;68.63935
31162;BME280;17796;49.296;-117.656;2023-02-28T20:46:42;94800;;;0.72192;67.5381
31162;BME280;17796;49.296;-117.656;2023-02-28T21:01:45;94800;;;0.34307;66.89708
31162;BME280;17796;49.296;-117.656;2023-02-28T21:16:49;94800;;;0.2424;67.52035
31162;BME280;17796;49.296;-117.656;2023-02-28T21:31:53;94800;;;2.1224;59.95546
31162;BME280;17796;49.296;-117.656;2023-02-28T21:46:57;94800;;;1.54728;63.62547
31162;BME280;17796;49.296;-117.656;2023-02-28T22:02:01;94900;;;1.18112;65.26314
31162;BME280;17796;49.296;-117.656;2023-02-28T22:17:04;94900;;;0.28083;69.17245
31162;BME280;17796;49.296;-117.656;2023-02-28T22:32:08;94900;;;0.12808;69.19381
31162;BME280;17796;49.296;-117.656;2023-02-28T22:47:11;94900;;;0.62411;69.49979
31162;BME280;17796;49.296;-117.656;2023-02-28T23:02:15;94900;;;0.39261;70.50667
31162;BME280;17796;49.296;-117.656;2023-02-28T23:17:19;94900;;;0.29448;70.46066
31162;BME280;17796;49.296;-117.656;2023-02-28T23:32:22;95000;;;0.38372;69.86506
31162;BME280;17796;49.296;-117.656;2023-02-28T23:47:26;95000;;;-0.12406;72.30936
